Weather at Aarhus Airport

Public forecast

Using degrees Celsius for public forecast. Weather courtesy of forecast.io.

Current aviation weather report (METAR) for Aarhus Airport

Report is more than 6 hours old.

2022/11/14 15:20 (retrieved 2 years ago)

EKAH 141520Z AUTO 10009KT 9999 OVC013/// 10/08 Q1018

Aviation forecast (TAF) for Aarhus Airport

Forecast is more than 12 hours old.

2023/02/22 18:00 (retrieved 1 year ago)

TAF EKAH 221705Z 2218/2318 14008KT 9999 BKN020 BECMG 2220/2222 4000 BR BKN008 TEMPO 2222/2306 1200 RADZ BR BKN004 BECMG 2306/2308 0400 FG BKN001 TEMPO 2308/2310 2000 BR BKN004 BECMG 2310/2312 30010KT 8000 NSW SCT005 BKN012 TEMPO 2312/2316 BKN008 BECMG 2316/2318 SCT020